sensor_id;sensor_type;location;lat;lon;timestamp;pressure;altitude;pressure_sealevel;temperature;humidity
42603;BME280;28233;55.748;48.752;2022-12-07T00:00:21;101358.94;;;-13.09;88.47
42603;BME280;28233;55.748;48.752;2022-12-07T00:02:24;101365.78;;;-13.07;88.18
42603;BME280;28233;55.748;48.752;2022-12-07T00:04:26;101363.25;;;-13.08;88.14
42603;BME280;28233;55.748;48.752;2022-12-07T00:06:29;101365.16;;;-13.10;88.08
42603;BME280;28233;55.748;48.752;2022-12-07T00:08:33;101375.63;;;-13.09;88.17
42603;BME280;28233;55.748;48.752;2022-12-07T00:10:36;101357.38;;;-13.12;88.29
42603;BME280;28233;55.748;48.752;2022-12-07T00:12:38;101358.06;;;-13.10;88.33
42603;BME280;28233;55.748;48.752;2022-12-07T00:14:41;101364.34;;;-13.11;88.29
42603;BME280;28233;55.748;48.752;2022-12-07T00:16:44;101368.66;;;-13.10;88.14
42603;BME280;28233;55.748;48.752;2022-12-07T00:18:47;101362.53;;;-13.10;88.20
42603;BME280;28233;55.748;48.752;2022-12-07T00:20:49;101365.31;;;-13.12;88.03
42603;BME280;28233;55.748;48.752;2022-12-07T00:22:52;101366.88;;;-13.09;88.00
42603;BME280;28233;55.748;48.752;2022-12-07T00:24:55;101367.59;;;-13.07;88.30
42603;BME280;28233;55.748;48.752;2022-12-07T00:26:57;101367.81;;;-13.10;88.02
42603;BME280;28233;55.748;48.752;2022-12-07T00:29:21;101371.28;;;-13.10;88.05
42603;BME280;28233;55.748;48.752;2022-12-07T00:31:29;101369.75;;;-13.12;87.79
42603;BME280;28233;55.748;48.752;2022-12-07T00:33:33;101356.41;;;-13.22;87.60
42603;BME280;28233;55.748;48.752;2022-12-07T00:35:36;101364.69;;;-13.15;87.60
42603;BME280;28233;55.748;48.752;2022-12-07T00:37:39;101375.41;;;-13.17;87.67
42603;BME280;28233;55.748;48.752;2022-12-07T00:39:41;101370.00;;;-13.15;87.35
42603;BME280;28233;55.748;48.752;2022-12-07T00:41:44;101357.97;;;-13.20;87.52
42603;BME280;28233;55.748;48.752;2022-12-07T00:43:47;101360.88;;;-13.23;87.34
42603;BME280;28233;55.748;48.752;2022-12-07T00:45:51;101360.88;;;-13.23;87.39
42603;BME280;28233;55.748;48.752;2022-12-07T00:47:53;101353.91;;;-13.24;87.45
42603;BME280;28233;55.748;48.752;2022-12-07T00:49:56;101359.19;;;-13.24;87.26
42603;BME280;28233;55.748;48.752;2022-12-07T00:51:58;101359.19;;;-13.24;87.76
42603;BME280;28233;55.748;48.752;2022-12-07T00:54:01;101359.19;;;-13.24;87.36
42603;BME280;28233;55.748;48.752;2022-12-07T00:56:13;101354.97;;;-13.26;87.44
42603;BME280;28233;55.748;48.752;2022-12-07T00:58:16;101352.09;;;-13.23;87.76
42603;BME280;28233;55.748;48.752;2022-12-07T01:00:18;101361.59;;;-13.21;87.88
42603;BME280;28233;55.748;48.752;2022-12-07T01:02:21;101345.72;;;-13.21;87.80
42603;BME280;28233;55.748;48.752;2022-12-07T01:04:24;101349.91;;;-13.18;87.84
42603;BME280;28233;55.748;48.752;2022-12-07T01:06:27;101335.03;;;-13.19;87.98
42603;BME280;28233;55.748;48.752;2022-12-07T01:08:30;101337.66;;;-13.19;87.98
42603;BME280;28233;55.748;48.752;2022-12-07T01:10:33;101334.88;;;-13.17;87.83
42603;BME280;28233;55.748;48.752;2022-12-07T01:12:35;101326.00;;;-13.16;87.90
42603;BME280;28233;55.748;48.752;2022-12-07T01:14:38;101330.06;;;-13.12;87.98
42603;BME280;28233;55.748;48.752;2022-12-07T01:16:41;101331.75;;;-13.11;87.75
42603;BME280;28233;55.748;48.752;2022-12-07T01:18:46;101332.69;;;-13.12;88.03
42603;BME280;28233;55.748;48.752;2022-12-07T01:21:07;101339.44;;;-13.08;88.30
42603;BME280;28233;55.748;48.752;2022-12-07T01:23:09;101331.38;;;-13.07;88.15
42603;BME280;28233;55.748;48.752;2022-12-07T01:25:12;101332.09;;;-13.05;88.17
42603;BME280;28233;55.748;48.752;2022-12-07T01:27:15;101342.53;;;-13.03;87.93
42603;BME280;28233;55.748;48.752;2022-12-07T01:29:18;101340.03;;;-13.05;87.64
42603;BME280;28233;55.748;48.752;2022-12-07T01:31:25;101336.69;;;-13.07;87.68
42603;BME280;28233;55.748;48.752;2022-12-07T01:33:30;101345.56;;;-13.08;87.69
42603;BME280;28233;55.748;48.752;2022-12-07T01:35:33;101348.34;;;-13.09;87.86
42603;BME280;28233;55.748;48.752;2022-12-07T01:37:37;101343.88;;;-13.09;87.88
42603;BME280;28233;55.748;48.752;2022-12-07T01:39:40;101351.56;;;-13.06;87.91
42603;BME280;28233;55.748;48.752;2022-12-07T01:41:43;101353.28;;;-13.05;87.92
42603;BME280;28233;55.748;48.752;2022-12-07T01:44:28;101349.28;;;-12.99;88.30
42603;BME280;28233;55.748;48.752;2022-12-07T01:46:32;101353.59;;;-12.98;87.92
42603;BME280;28233;55.748;48.752;2022-12-07T01:48:38;101360.59;;;-12.97;87.63
42603;BME280;28233;55.748;48.752;2022-12-07T01:50:43;101346.25;;;-12.94;87.94
42603;BME280;28233;55.748;48.752;2022-12-07T01:52:48;101362.13;;;-12.94;87.69
42603;BME280;28233;55.748;48.752;2022-12-07T01:54:56;101356.84;;;-12.94;87.56
42603;BME280;28233;55.748;48.752;2022-12-07T01:56:59;101361.31;;;-12.95;87.62
42603;BME280;28233;55.748;48.752;2022-12-07T01:59:02;101354.47;;;-12.98;87.84
42603;BME280;28233;55.748;48.752;2022-12-07T02:01:04;101362.03;;;-12.93;88.04
42603;BME280;28233;55.748;48.752;2022-12-07T02:03:16;101363.59;;;-12.90;87.73
42603;BME280;28233;55.748;48.752;2022-12-07T02:05:21;101365.00;;;-12.86;88.08
42603;BME280;28233;55.748;48.752;2022-12-07T02:07:25;101369.06;;;-12.82;87.77
42603;BME280;28233;55.748;48.752;2022-12-07T02:09:29;101359.59;;;-12.85;87.13
42603;BME280;28233;55.748;48.752;2022-12-07T02:11:31;101358.38;;;-12.81;87.60
42603;BME280;28233;55.748;48.752;2022-12-07T02:13:36;101349.72;;;-12.83;87.64
42603;BME280;28233;55.748;48.752;2022-12-07T02:24:37;101363.16;;;-12.74;87.36
42603;BME280;28233;55.748;48.752;2022-12-07T02:29:27;101364.25;;;-12.77;87.18
42603;BME280;28233;55.748;48.752;2022-12-07T02:31:33;101372.06;;;-12.75;87.40
42603;BME280;28233;55.748;48.752;2022-12-07T02:33:48;101370.16;;;-12.73;87.31
42603;BME280;28233;55.748;48.752;2022-12-07T02:40:34;101367.84;;;-12.67;87.03
42603;BME280;28233;55.748;48.752;2022-12-07T02:42:42;101364.94;;;-12.64;87.15
42603;BME280;28233;55.748;48.752;2022-12-07T02:44:47;101369.41;;;-12.64;86.90
42603;BME280;28233;55.748;48.752;2022-12-07T02:46:58;101373.84;;;-12.65;87.01
42603;BME280;28233;55.748;48.752;2022-12-07T02:49:03;101372.88;;;-12.64;87.07
42603;BME280;28233;55.748;48.752;2022-12-07T02:51:06;101367.47;;;-12.62;86.99
42603;BME280;28233;55.748;48.752;2022-12-07T02:53:28;101360.47;;;-12.63;86.79
42603;BME280;28233;55.748;48.752;2022-12-07T02:55:37;101352.41;;;-12.62;86.73
42603;BME280;28233;55.748;48.752;2022-12-07T02:58:22;101342.78;;;-12.63;86.62
42603;BME280;28233;55.748;48.752;2022-12-07T03:00:26;101356.72;;;-12.61;86.93
42603;BME280;28233;55.748;48.752;2022-12-07T03:04:43;101347.38;;;-12.65;86.68
42603;BME280;28233;55.748;48.752;2022-12-07T03:07:01;101367.56;;;-12.64;86.69
42603;BME280;28233;55.748;48.752;2022-12-07T03:09:32;101352.69;;;-12.65;86.39
42603;BME280;28233;55.748;48.752;2022-12-07T03:11:44;101363.94;;;-12.63;86.55
42603;BME280;28233;55.748;48.752;2022-12-07T03:14:07;101353.50;;;-12.64;86.33
42603;BME280;28233;55.748;48.752;2022-12-07T03:18:30;101352.69;;;-12.65;86.53
42603;BME280;28233;55.748;48.752;2022-12-07T03:20:35;101352.69;;;-12.65;86.72
42603;BME280;28233;55.748;48.752;2022-12-07T03:22:42;101361.56;;;-12.66;86.23
42603;BME280;28233;55.748;48.752;2022-12-07T03:24:50;101354.47;;;-12.65;86.34
42603;BME280;28233;55.748;48.752;2022-12-07T03:27:09;101353.63;;;-12.66;85.83
42603;BME280;28233;55.748;48.752;2022-12-07T03:29:30;101354.34;;;-12.64;86.25
42603;BME280;28233;55.748;48.752;2022-12-07T03:31:39;101356.28;;;-12.66;86.21
42603;BME280;28233;55.748;48.752;2022-12-07T03:36:13;101366.03;;;-12.66;86.12
42603;BME280;28233;55.748;48.752;2022-12-07T03:40:39;101373.59;;;-12.62;86.01
42603;BME280;28233;55.748;48.752;2022-12-07T03:42:43;101367.56;;;-12.64;85.79
42603;BME280;28233;55.748;48.752;2022-12-07T03:44:46;101379.84;;;-12.63;86.14
42603;BME280;28233;55.748;48.752;2022-12-07T03:47:05;101373.00;;;-12.65;85.46
42603;BME280;28233;55.748;48.752;2022-12-07T03:54:44;101366.16;;;-12.68;85.73
42603;BME280;28233;55.748;48.752;2022-12-07T03:56:52;101382.91;;;-12.67;86.09
42603;BME280;28233;55.748;48.752;2022-12-07T03:58:55;101377.59;;;-12.67;85.98
42603;BME280;28233;55.748;48.752;2022-12-07T04:00:58;101366.41;;;-12.71;86.06
42603;BME280;28233;55.748;48.752;2022-12-07T04:03:01;101376.00;;;-12.70;86.11
42603;BME280;28233;55.748;48.752;2022-12-07T04:05:04;101377.81;;;-12.70;85.90
42603;BME280;28233;55.748;48.752;2022-12-07T04:07:07;101378.44;;;-12.67;86.12
42603;BME280;28233;55.748;48.752;2022-12-07T04:09:09;101381.78;;;-12.65;86.00
42603;BME280;28233;55.748;48.752;2022-12-07T04:11:12;101377.72;;;-12.69;85.27
42603;BME280;28233;55.748;48.752;2022-12-07T04:13:14;101367.63;;;-12.75;85.38
42603;BME280;28233;55.748;48.752;2022-12-07T04:15:17;101376.50;;;-12.65;86.11
42603;BME280;28233;55.748;48.752;2022-12-07T04:17:20;101379.59;;;-12.60;86.38
42603;BME280;28233;55.748;48.752;2022-12-07T04:19:27;101385.63;;;-12.58;86.02
42603;BME280;28233;55.748;48.752;2022-12-07T04:21:30;101381.28;;;-12.59;85.93
42603;BME280;28233;55.748;48.752;2022-12-07T04:23:33;101382.25;;;-12.60;86.11
42603;BME280;28233;55.748;48.752;2022-12-07T04:25:36;101380.81;;;-12.64;85.84
42603;BME280;28233;55.748;48.752;2022-12-07T04:27:38;101374.81;;;-12.66;85.61
42603;BME280;28233;55.748;48.752;2022-12-07T04:29:41;101369.66;;;-12.67;85.72
42603;BME280;28233;55.748;48.752;2022-12-07T04:31:44;101381.66;;;-12.63;86.00
42603;BME280;28233;55.748;48.752;2022-12-07T04:33:47;101375.25;;;-12.61;86.28
42603;BME280;28233;55.748;48.752;2022-12-07T04:35:50;101379.22;;;-12.55;86.50
42603;BME280;28233;55.748;48.752;2022-12-07T04:37:52;101375.75;;;-12.56;86.14
42603;BME280;28233;55.748;48.752;2022-12-07T04:39:55;101378.25;;;-12.54;86.04
42603;BME280;28233;55.748;48.752;2022-12-07T04:41:58;101388.34;;;-12.48;86.31
42603;BME280;28233;55.748;48.752;2022-12-07T04:44:03;101391.84;;;-12.47;86.24
42603;BME280;28233;55.748;48.752;2022-12-07T04:46:06;101388.22;;;-12.46;86.19
42603;BME280;28233;55.748;48.752;2022-12-07T04:48:09;101392.19;;;-12.41;86.14
42603;BME280;28233;55.748;48.752;2022-12-07T04:50:11;101389.53;;;-12.41;86.15
42603;BME280;28233;55.748;48.752;2022-12-07T04:52:14;101389.97;;;-12.36;86.25
42603;BME280;28233;55.748;48.752;2022-12-07T04:54:17;101380.94;;;-12.33;86.04
42603;BME280;28233;55.748;48.752;2022-12-07T04:56:20;101386.84;;;-12.29;85.72
42603;BME280;28233;55.748;48.752;2022-12-07T04:58:22;101384.75;;;-12.26;85.77
42603;BME280;28233;55.748;48.752;2022-12-07T05:00:25;101379.91;;;-12.21;85.80
42603;BME280;28233;55.748;48.752;2022-12-07T05:02:27;101371.13;;;-12.21;85.67
42603;BME280;28233;55.748;48.752;2022-12-07T05:04:30;101374.00;;;-12.13;85.70
42603;BME280;28233;55.748;48.752;2022-12-07T05:06:33;101386.13;;;-12.10;85.39
42603;BME280;28233;55.748;48.752;2022-12-07T05:08:36;101387.53;;;-12.06;85.51
42603;BME280;28233;55.748;48.752;2022-12-07T05:10:39;101389.81;;;-12.02;85.37
42603;BME280;28233;55.748;48.752;2022-12-07T05:12:41;101386.06;;;-11.99;85.15
42603;BME280;28233;55.748;48.752;2022-12-07T05:14:44;101384.97;;;-11.97;84.84
42603;BME280;28233;55.748;48.752;2022-12-07T05:16:49;101393.50;;;-11.93;85.04
42603;BME280;28233;55.748;48.752;2022-12-07T05:18:52;101391.44;;;-11.89;84.76
42603;BME280;28233;55.748;48.752;2022-12-07T05:20:54;101389.22;;;-11.84;85.28
42603;BME280;28233;55.748;48.752;2022-12-07T05:22:57;101381.69;;;-11.79;84.99
42603;BME280;28233;55.748;48.752;2022-12-07T05:25:00;101404.19;;;-11.74;84.91
42603;BME280;28233;55.748;48.752;2022-12-07T05:27:04;101405.63;;;-11.70;85.13
42603;BME280;28233;55.748;48.752;2022-12-07T05:29:07;101406.44;;;-11.69;84.38
42603;BME280;28233;55.748;48.752;2022-12-07T05:31:12;101402.69;;;-11.66;84.76
42603;BME280;28233;55.748;48.752;2022-12-07T05:33:15;101411.38;;;-11.64;84.09
42603;BME280;28233;55.748;48.752;2022-12-07T05:35:18;101412.06;;;-11.62;84.35
42603;BME280;28233;55.748;48.752;2022-12-07T05:37:21;101412.78;;;-11.60;83.88
42603;BME280;28233;55.748;48.752;2022-12-07T05:39:24;101399.81;;;-11.63;84.03
42603;BME280;28233;55.748;48.752;2022-12-07T05:41:26;101407.38;;;-11.59;83.66
42603;BME280;28233;55.748;48.752;2022-12-07T05:43:47;101408.91;;;-11.56;83.55
42603;BME280;28233;55.748;48.752;2022-12-07T05:45:50;101412.53;;;-11.57;82.55
42603;BME280;28233;55.748;48.752;2022-12-07T05:47:53;101420.09;;;-11.53;83.01
42603;BME280;28233;55.748;48.752;2022-12-07T05:49:55;101415.50;;;-11.51;82.77
42603;BME280;28233;55.748;48.752;2022-12-07T05:51:58;101414.78;;;-11.53;82.29
42603;BME280;28233;55.748;48.752;2022-12-07T05:54:01;101415.22;;;-11.48;83.13
42603;BME280;28233;55.748;48.752;2022-12-07T05:56:04;101415.53;;;-11.41;83.83
42603;BME280;28233;55.748;48.752;2022-12-07T05:58:07;101419.06;;;-11.40;83.26
42603;BME280;28233;55.748;48.752;2022-12-07T06:00:28;101420.72;;;-11.39;83.42
42603;BME280;28233;55.748;48.752;2022-12-07T06:02:31;101415.28;;;-11.38;83.43
42603;BME280;28233;55.748;48.752;2022-12-07T06:04:38;101426.19;;;-11.31;83.21
42603;BME280;28233;55.748;48.752;2022-12-07T06:06:41;101421.88;;;-11.32;82.87
42603;BME280;28233;55.748;48.752;2022-12-07T06:08:44;101423.28;;;-11.28;83.22
42603;BME280;28233;55.748;48.752;2022-12-07T06:10:47;101423.59;;;-11.21;83.24
42603;BME280;28233;55.748;48.752;2022-12-07T06:13:10;101417.03;;;-11.17;82.78
42603;BME280;28233;55.748;48.752;2022-12-07T06:15:12;101424.59;;;-11.13;82.93
42603;BME280;28233;55.748;48.752;2022-12-07T06:17:15;101428.41;;;-11.06;83.00
42603;BME280;28233;55.748;48.752;2022-12-07T06:19:18;101431.63;;;-11.02;82.61
42603;BME280;28233;55.748;48.752;2022-12-07T06:21:21;101432.06;;;-10.97;82.42
42603;BME280;28233;55.748;48.752;2022-12-07T06:23:23;101428.31;;;-10.94;82.48
42603;BME280;28233;55.748;48.752;2022-12-07T06:25:26;101432.81;;;-10.85;82.04
42603;BME280;28233;55.748;48.752;2022-12-07T06:27:29;101444.69;;;-10.79;82.03
42603;BME280;28233;55.748;48.752;2022-12-07T06:29:32;101442.63;;;-10.76;82.03
42603;BME280;28233;55.748;48.752;2022-12-07T06:31:35;101438.16;;;-10.66;82.60
42603;BME280;28233;55.748;48.752;2022-12-07T06:33:38;101432.31;;;-10.59;82.10
42603;BME280;28233;55.748;48.752;2022-12-07T06:35:42;101433.16;;;-10.59;80.86
42603;BME280;28233;55.748;48.752;2022-12-07T06:37:44;101441.09;;;-10.59;80.69
42603;BME280;28233;55.748;48.752;2022-12-07T06:39:47;101446.72;;;-10.52;81.08
42603;BME280;28233;55.748;48.752;2022-12-07T06:41:50;101446.19;;;-10.46;81.55
42603;BME280;28233;55.748;48.752;2022-12-07T06:43:54;101442.84;;;-10.38;81.38
42603;BME280;28233;55.748;48.752;2022-12-07T06:45:57;101448.44;;;-10.32;81.22
42603;BME280;28233;55.748;48.752;2022-12-07T06:48:00;101450.94;;;-10.30;80.42
42603;BME280;28233;55.748;48.752;2022-12-07T06:50:03;101449.00;;;-10.28;80.58
42603;BME280;28233;55.748;48.752;2022-12-07T06:52:06;101450.25;;;-10.23;80.44
42603;BME280;28233;55.748;48.752;2022-12-07T06:54:13;101439.44;;;-10.21;80.47
42603;BME280;28233;55.748;48.752;2022-12-07T06:56:16;101437.19;;;-10.16;80.75
42603;BME280;28233;55.748;48.752;2022-12-07T06:58:19;101440.56;;;-10.14;80.28
42603;BME280;28233;55.748;48.752;2022-12-07T07:00:22;101452.75;;;-10.11;79.98
42603;BME280;28233;55.748;48.752;2022-12-07T07:02:24;101442.09;;;-10.21;79.71
42603;BME280;28233;55.748;48.752;2022-12-07T07:04:27;101440.72;;;-10.15;80.00
42603;BME280;28233;55.748;48.752;2022-12-07T07:06:36;101449.13;;;-10.10;79.82
42603;BME280;28233;55.748;48.752;2022-12-07T07:08:39;101452.06;;;-10.04;80.03
42603;BME280;28233;55.748;48.752;2022-12-07T07:10:42;101443.78;;;-10.01;80.14
42603;BME280;28233;55.748;48.752;2022-12-07T07:12:45;101449.94;;;-10.00;80.32
42603;BME280;28233;55.748;48.752;2022-12-07T07:14:47;101451.91;;;-10.02;79.61
42603;BME280;28233;55.748;48.752;2022-12-07T07:16:50;101450.78;;;-10.00;80.14
42603;BME280;28233;55.748;48.752;2022-12-07T07:18:53;101450.34;;;-9.95;80.19
42603;BME280;28233;55.748;48.752;2022-12-07T07:20:55;101449.94;;;-10.00;79.33
42603;BME280;28233;55.748;48.752;2022-12-07T07:22:58;101454.56;;;-10.02;79.08
42603;BME280;28233;55.748;48.752;2022-12-07T07:25:01;101455.25;;;-10.00;79.30
42603;BME280;28233;55.748;48.752;2022-12-07T07:27:04;101451.06;;;-10.03;78.61
42603;BME280;28233;55.748;48.752;2022-12-07T07:29:07;101456.94;;;-10.09;78.57
42603;BME280;28233;55.748;48.752;2022-12-07T07:31:10;101446.75;;;-10.04;79.35
42603;BME280;28233;55.748;48.752;2022-12-07T07:33:13;101451.91;;;-10.02;79.27
42603;BME280;28233;55.748;48.752;2022-12-07T07:35:15;101467.16;;;-10.04;78.86
42603;BME280;28233;55.748;48.752;2022-12-07T07:37:18;101464.38;;;-10.03;78.75
42603;BME280;28233;55.748;48.752;2022-12-07T07:39:23;101468.97;;;-10.05;78.61
42603;BME280;28233;55.748;48.752;2022-12-07T07:41:26;101466.59;;;-10.08;79.27
42603;BME280;28233;55.748;48.752;2022-12-07T07:43:28;101459.34;;;-10.06;78.70
42603;BME280;28233;55.748;48.752;2022-12-07T07:45:31;101455.69;;;-10.05;79.12
42603;BME280;28233;55.748;48.752;2022-12-07T07:47:34;101444.22;;;-9.95;79.21
42603;BME280;28233;55.748;48.752;2022-12-07T07:49:36;101439.16;;;-9.89;79.39
42603;BME280;28233;55.748;48.752;2022-12-07T07:51:45;101440.00;;;-9.88;79.37
42603;BME280;28233;55.748;48.752;2022-12-07T07:53:48;101440.28;;;-9.82;78.96
42603;BME280;28233;55.748;48.752;2022-12-07T07:55:54;101440.56;;;-9.85;78.79
42603;BME280;28233;55.748;48.752;2022-12-07T07:57:56;101443.94;;;-9.83;79.05
42603;BME280;28233;55.748;48.752;2022-12-07T07:59:59;101440.16;;;-9.80;78.78
42603;BME280;28233;55.748;48.752;2022-12-07T08:02:04;101440.84;;;-9.78;79.24
42603;BME280;28233;55.748;48.752;2022-12-07T08:04:07;101433.69;;;-9.77;79.07
42603;BME280;28233;55.748;48.752;2022-12-07T08:06:09;101444.47;;;-9.69;80.39
42603;BME280;28233;55.748;48.752;2022-12-07T08:08:12;101442.78;;;-9.70;79.13
42603;BME280;28233;55.748;48.752;2022-12-07T08:10:15;101452.00;;;-9.65;79.86
42603;BME280;28233;55.748;48.752;2022-12-07T08:12:17;101449.53;;;-9.66;78.74
42603;BME280;28233;55.748;48.752;2022-12-07T08:14:20;101443.06;;;-9.64;79.24
42603;BME280;28233;55.748;48.752;2022-12-07T08:16:23;101446.69;;;-9.65;78.90
42603;BME280;28233;55.748;48.752;2022-12-07T08:18:25;101446.16;;;-9.68;79.23
42603;BME280;28233;55.748;48.752;2022-12-07T08:20:30;101430.72;;;-9.65;79.74
42603;BME280;28233;55.748;48.752;2022-12-07T08:22:34;101440.81;;;-9.59;79.64
42603;BME280;28233;55.748;48.752;2022-12-07T08:24:37;101441.34;;;-9.55;80.08
42603;BME280;28233;55.748;48.752;2022-12-07T08:26:40;101440.50;;;-9.46;78.98
42603;BME280;28233;55.748;48.752;2022-12-07T08:28:43;101451.53;;;-9.41;78.76
42603;BME280;28233;55.748;48.752;2022-12-07T08:30:47;101426.63;;;-9.40;79.56
42603;BME280;28233;55.748;48.752;2022-12-07T08:32:50;101428.13;;;-9.27;78.69
42603;BME280;28233;55.748;48.752;2022-12-07T08:34:53;101440.47;;;-9.26;78.58
42603;BME280;28233;55.748;48.752;2022-12-07T08:36:55;101441.00;;;-9.23;78.72
42603;BME280;28233;55.748;48.752;2022-12-07T08:38:58;101432.56;;;-9.18;78.77
42603;BME280;28233;55.748;48.752;2022-12-07T08:41:21;101437.47;;;-9.13;78.30
42603;BME280;28233;55.748;48.752;2022-12-07T08:43:24;101428.63;;;-9.14;77.91
42603;BME280;28233;55.748;48.752;2022-12-07T08:45:27;101446.28;;;-9.13;78.17
42603;BME280;28233;55.748;48.752;2022-12-07T08:47:30;101438.56;;;-9.06;78.73
42603;BME280;28233;55.748;48.752;2022-12-07T08:49:43;101446.94;;;-9.01;77.78
42603;BME280;28233;55.748;48.752;2022-12-07T08:51:49;101431.25;;;-9.04;77.58
42603;BME280;28233;55.748;48.752;2022-12-07T08:53:53;101437.28;;;-9.02;78.09
42603;BME280;28233;55.748;48.752;2022-12-07T08:55:56;101439.78;;;-9.01;77.81
42603;BME280;28233;55.748;48.752;2022-12-07T08:58:02;101436.66;;;-8.96;77.88
42603;BME280;28233;55.748;48.752;2022-12-07T09:00:06;101428.00;;;-8.98;77.40
42603;BME280;28233;55.748;48.752;2022-12-07T09:02:09;101433.03;;;-8.95;77.31
42603;BME280;28233;55.748;48.752;2022-12-07T09:04:12;101437.75;;;-8.89;78.02
42603;BME280;28233;55.748;48.752;2022-12-07T09:06:15;101432.16;;;-8.86;76.97
42603;BME280;28233;55.748;48.752;2022-12-07T09:08:18;101419.09;;;-8.89;77.79
42603;BME280;28233;55.748;48.752;2022-12-07T09:10:21;101421.19;;;-8.83;77.03
42603;BME280;28233;55.748;48.752;2022-12-07T09:12:23;101416.25;;;-8.78;77.33
42603;BME280;28233;55.748;48.752;2022-12-07T09:14:26;101419.63;;;-8.76;76.85
42603;BME280;28233;55.748;48.752;2022-12-07T09:16:28;101419.09;;;-8.79;76.25
42603;BME280;28233;55.748;48.752;2022-12-07T09:18:31;101419.66;;;-8.85;76.56
42603;BME280;28233;55.748;48.752;2022-12-07T09:20:34;101411.69;;;-8.85;77.03
42603;BME280;28233;55.748;48.752;2022-12-07T09:22:37;101413.06;;;-8.81;77.51
42603;BME280;28233;55.748;48.752;2022-12-07T09:24:40;101421.75;;;-8.79;76.72
42603;BME280;28233;55.748;48.752;2022-12-07T09:26:42;101426.53;;;-8.83;76.10
42603;BME280;28233;55.748;48.752;2022-12-07T09:28:45;101430.63;;;-8.88;76.53
42603;BME280;28233;55.748;48.752;2022-12-07T09:30:48;101423.91;;;-8.93;76.37
42603;BME280;28233;55.748;48.752;2022-12-07T09:33:11;101428.16;;;-9.00;76.31
42603;BME280;28233;55.748;48.752;2022-12-07T09:35:14;101427.75;;;-9.05;77.05
42603;BME280;28233;55.748;48.752;2022-12-07T09:37:17;101411.91;;;-9.06;76.65
42603;BME280;28233;55.748;48.752;2022-12-07T09:39:19;101423.13;;;-9.03;77.58
42603;BME280;28233;55.748;48.752;2022-12-07T09:41:23;101415.97;;;-9.02;77.70
42603;BME280;28233;55.748;48.752;2022-12-07T09:43:26;101429.97;;;-9.00;77.92
42603;BME280;28233;55.748;48.752;2022-12-07T09:45:35;101421.44;;;-9.04;76.93
42603;BME280;28233;55.748;48.752;2022-12-07T09:47:39;101426.63;;;-9.02;78.26
42603;BME280;28233;55.748;48.752;2022-12-07T09:49:41;101423.78;;;-9.01;78.13
42603;BME280;28233;55.748;48.752;2022-12-07T09:51:44;101422.25;;;-9.03;77.67
42603;BME280;28233;55.748;48.752;2022-12-07T09:53:48;101422.56;;;-9.06;77.69
42603;BME280;28233;55.748;48.752;2022-12-07T09:55:52;101430.03;;;-9.10;77.81
42603;BME280;28233;55.748;48.752;2022-12-07T09:57:57;101428.06;;;-9.18;77.91
42603;BME280;28233;55.748;48.752;2022-12-07T10:00:06;101431.56;;;-9.17;78.01
42603;BME280;28233;55.748;48.752;2022-12-07T10:02:37;101427.38;;;-9.10;79.15
42603;BME280;28233;55.748;48.752;2022-12-07T10:04:40;101424.41;;;-9.07;79.22
42603;BME280;28233;55.748;48.752;2022-12-07T10:06:43;101430.41;;;-9.05;78.55
42603;BME280;28233;55.748;48.752;2022-12-07T10:08:46;101424.41;;;-9.07;78.58
42603;BME280;28233;55.748;48.752;2022-12-07T10:10:52;101423.31;;;-9.14;77.68
42603;BME280;28233;55.748;48.752;2022-12-07T10:13:33;101426.09;;;-9.16;77.65
42603;BME280;28233;55.748;48.752;2022-12-07T10:15:44;101428.34;;;-9.11;78.24
42603;BME280;28233;55.748;48.752;2022-12-07T10:17:48;101429.47;;;-9.13;77.68
42603;BME280;28233;55.748;48.752;2022-12-07T10:19:52;101432.97;;;-9.13;78.08
42603;BME280;28233;55.748;48.752;2022-12-07T10:24:24;101426.25;;;-9.17;78.38
42603;BME280;28233;55.748;48.752;2022-12-07T10:28:36;101432.75;;;-9.29;78.08
42603;BME280;28233;55.748;48.752;2022-12-07T10:32:52;101426.16;;;-9.25;78.69
42603;BME280;28233;55.748;48.752;2022-12-07T10:35:27;101420.81;;;-9.25;78.96
42603;BME280;28233;55.748;48.752;2022-12-07T10:37:40;101426.00;;;-9.24;78.92
42603;BME280;28233;55.748;48.752;2022-12-07T10:39:47;101425.31;;;-9.26;78.38
42603;BME280;28233;55.748;48.752;2022-12-07T10:42:01;101428.94;;;-9.27;78.58
42603;BME280;28233;55.748;48.752;2022-12-07T10:44:04;101432.47;;;-9.26;79.11
42603;BME280;28233;55.748;48.752;2022-12-07T10:56:44;101431.91;;;-9.30;80.17
42603;BME280;28233;55.748;48.752;2022-12-07T11:05:45;101427.16;;;-9.26;80.65
42603;BME280;28233;55.748;48.752;2022-12-07T11:18:06;101432.88;;;-9.21;81.45
42603;BME280;28233;55.748;48.752;2022-12-07T11:22:42;101425.16;;;-9.24;80.95
42603;BME280;28233;55.748;48.752;2022-12-07T11:31:49;101434.94;;;-9.15;81.87
42603;BME280;28233;55.748;48.752;2022-12-07T11:36:38;101426.06;;;-9.06;81.67
42603;BME280;28233;55.748;48.752;2022-12-07T11:38:50;101428.91;;;-9.07;81.23
42603;BME280;28233;55.748;48.752;2022-12-07T11:41:00;101426.25;;;-9.17;80.76
42603;BME280;28233;55.748;48.752;2022-12-07T11:43:27;101431.47;;;-9.25;80.89
42603;BME280;28233;55.748;48.752;2022-12-07T11:45:33;101427.59;;;-9.31;80.50
42603;BME280;28233;55.748;48.752;2022-12-07T11:48:03;101428.97;;;-9.37;80.74
42603;BME280;28233;55.748;48.752;2022-12-07T11:53:09;101434.03;;;-9.43;81.54
42603;BME280;28233;55.748;48.752;2022-12-07T11:55:21;101424.25;;;-9.52;80.84
42603;BME280;28233;55.748;48.752;2022-12-07T11:57:37;101429.44;;;-9.51;81.15
42603;BME280;28233;55.748;48.752;2022-12-07T11:59:49;101431.81;;;-9.48;81.38
42603;BME280;28233;55.748;48.752;2022-12-07T12:02:13;101418.41;;;-9.56;81.43